sensor_id;sensor_type;location;lat;lon;timestamp;P1;durP1;ratioP1;P2;durP2;ratioP2
1785;SDS011;890;48.158;11.540;2022-12-07T00:01:06;14.80;;;13.20;;
1785;SDS011;890;48.158;11.540;2022-12-07T00:03:33;14.93;;;13.43;;
1785;SDS011;890;48.158;11.540;2022-12-07T00:05:59;15.07;;;13.57;;
1785;SDS011;890;48.158;11.540;2022-12-07T00:08:26;13.77;;;12.47;;
1785;SDS011;890;48.158;11.540;2022-12-07T00:10:52;13.97;;;12.47;;
1785;SDS011;890;48.158;11.540;2022-12-07T00:13:17;14.57;;;13.03;;
1785;SDS011;890;48.158;11.540;2022-12-07T00:15:43;16.00;;;14.30;;
1785;SDS011;890;48.158;11.540;2022-12-07T00:18:09;16.53;;;13.83;;
1785;SDS011;890;48.158;11.540;2022-12-07T00:20:35;14.60;;;13.20;;
1785;SDS011;890;48.158;11.540;2022-12-07T00:23:01;14.60;;;13.03;;
1785;SDS011;890;48.158;11.540;2022-12-07T00:25:26;14.17;;;12.73;;
1785;SDS011;890;48.158;11.540;2022-12-07T00:27:52;15.20;;;13.70;;
1785;SDS011;890;48.158;11.540;2022-12-07T00:30:21;13.60;;;12.20;;
1785;SDS011;890;48.158;11.540;2022-12-07T00:32:47;14.50;;;13.00;;
1785;SDS011;890;48.158;11.540;2022-12-07T00:35:13;13.57;;;12.17;;
1785;SDS011;890;48.158;11.540;2022-12-07T00:37:39;14.30;;;12.83;;
1785;SDS011;890;48.158;11.540;2022-12-07T00:40:04;14.67;;;13.13;;
1785;SDS011;890;48.158;11.540;2022-12-07T00:42:31;16.20;;;13.20;;
1785;SDS011;890;48.158;11.540;2022-12-07T00:44:56;14.50;;;13.00;;
1785;SDS011;890;48.158;11.540;2022-12-07T00:47:22;14.13;;;12.63;;
1785;SDS011;890;48.158;11.540;2022-12-07T00:49:47;13.67;;;12.37;;
1785;SDS011;890;48.158;11.540;2022-12-07T00:52:13;14.60;;;13.10;;
1785;SDS011;890;48.158;11.540;2022-12-07T00:54:39;13.50;;;12.10;;
1785;SDS011;890;48.158;11.540;2022-12-07T00:57:05;12.80;;;11.50;;
1785;SDS011;890;48.158;11.540;2022-12-07T00:59:30;13.27;;;11.87;;
1785;SDS011;890;48.158;11.540;2022-12-07T01:01:56;12.70;;;11.40;;
1785;SDS011;890;48.158;11.540;2022-12-07T01:04:22;12.73;;;11.40;;
1785;SDS011;890;48.158;11.540;2022-12-07T01:06:48;12.20;;;10.97;;
1785;SDS011;890;48.158;11.540;2022-12-07T01:09:13;14.17;;;12.67;;
1785;SDS011;890;48.158;11.540;2022-12-07T01:11:39;13.27;;;11.97;;
1785;SDS011;890;48.158;11.540;2022-12-07T01:14:05;12.67;;;11.40;;
1785;SDS011;890;48.158;11.540;2022-12-07T01:16:31;13.70;;;12.30;;
1785;SDS011;890;48.158;11.540;2022-12-07T01:18:57;13.73;;;12.03;;
1785;SDS011;890;48.158;11.540;2022-12-07T01:21:28;13.70;;;12.20;;
1785;SDS011;890;48.158;11.540;2022-12-07T01:23:59;12.57;;;10.43;;
1785;SDS011;890;48.158;11.540;2022-12-07T01:26:28;14.43;;;12.93;;
1785;SDS011;890;48.158;11.540;2022-12-07T01:28:54;13.00;;;11.70;;
1785;SDS011;890;48.158;11.540;2022-12-07T01:31:21;12.73;;;11.43;;
1785;SDS011;890;48.158;11.540;2022-12-07T01:33:51;13.17;;;11.73;;
1785;SDS011;890;48.158;11.540;2022-12-07T01:36:20;14.20;;;12.80;;
1785;SDS011;890;48.158;11.540;2022-12-07T01:38:51;12.60;;;11.30;;
1785;SDS011;890;48.158;11.540;2022-12-07T01:41:21;14.50;;;13.07;;
1785;SDS011;890;48.158;11.540;2022-12-07T01:46:41;12.83;;;11.53;;
1785;SDS011;890;48.158;11.540;2022-12-07T01:49:21;13.20;;;11.90;;
1785;SDS011;890;48.158;11.540;2022-12-07T01:52:11;13.20;;;11.70;;
1785;SDS011;890;48.158;11.540;2022-12-07T01:54:42;13.00;;;11.70;;
1785;SDS011;890;48.158;11.540;2022-12-07T01:57:09;13.40;;;12.00;;
1785;SDS011;890;48.158;11.540;2022-12-07T01:59:35;14.07;;;12.67;;
1785;SDS011;890;48.158;11.540;2022-12-07T02:02:03;12.90;;;11.60;;
1785;SDS011;890;48.158;11.540;2022-12-07T02:04:35;13.27;;;11.97;;
1785;SDS011;890;48.158;11.540;2022-12-07T02:07:01;13.57;;;12.17;;
1785;SDS011;890;48.158;11.540;2022-12-07T02:09:28;12.97;;;11.77;;
1785;SDS011;890;48.158;11.540;2022-12-07T02:11:54;13.27;;;11.93;;
1785;SDS011;890;48.158;11.540;2022-12-07T02:14:20;14.70;;;12.13;;
1785;SDS011;890;48.158;11.540;2022-12-07T02:16:48;12.47;;;11.17;;
1785;SDS011;890;48.158;11.540;2022-12-07T02:24:57;12.60;;;11.30;;
1785;SDS011;890;48.158;11.540;2022-12-07T02:30:26;14.27;;;12.77;;
1785;SDS011;890;48.158;11.540;2022-12-07T02:33:00;14.37;;;12.97;;
1785;SDS011;890;48.158;11.540;2022-12-07T02:45:57;13.90;;;12.40;;
1785;SDS011;890;48.158;11.540;2022-12-07T02:48:27;14.03;;;12.53;;
1785;SDS011;890;48.158;11.540;2022-12-07T02:50:54;12.57;;;11.33;;
1785;SDS011;890;48.158;11.540;2022-12-07T02:55:59;12.80;;;11.50;;
1785;SDS011;890;48.158;11.540;2022-12-07T03:01:43;12.93;;;11.63;;
1785;SDS011;890;48.158;11.540;2022-12-07T03:12:25;14.00;;;12.60;;
1785;SDS011;890;48.158;11.540;2022-12-07T03:18:18;13.57;;;12.17;;
1785;SDS011;890;48.158;11.540;2022-12-07T03:20:47;13.43;;;12.03;;
1785;SDS011;890;48.158;11.540;2022-12-07T03:23:15;13.60;;;12.23;;
1785;SDS011;890;48.158;11.540;2022-12-07T03:25:45;14.80;;;13.40;;
1785;SDS011;890;48.158;11.540;2022-12-07T03:28:14;15.17;;;13.57;;
1785;SDS011;890;48.158;11.540;2022-12-07T03:30:45;14.27;;;12.80;;
1785;SDS011;890;48.158;11.540;2022-12-07T03:33:22;14.67;;;13.13;;
1785;SDS011;890;48.158;11.540;2022-12-07T03:35:57;13.40;;;12.10;;
1785;SDS011;890;48.158;11.540;2022-12-07T03:38:38;13.93;;;12.53;;
1785;SDS011;890;48.158;11.540;2022-12-07T03:41:12;15.00;;;13.40;;
1785;SDS011;890;48.158;11.540;2022-12-07T03:43:44;15.33;;;13.20;;
1785;SDS011;890;48.158;11.540;2022-12-07T03:46:20;13.60;;;12.17;;
1785;SDS011;890;48.158;11.540;2022-12-07T03:49:45;14.97;;;13.47;;
1785;SDS011;890;48.158;11.540;2022-12-07T03:51:47;14.13;;;12.73;;
1785;SDS011;890;48.158;11.540;2022-12-07T03:54:31;15.63;;;13.53;;
1785;SDS011;890;48.158;11.540;2022-12-07T03:57:02;14.40;;;12.90;;
1785;SDS011;890;48.158;11.540;2022-12-07T03:59:29;15.30;;;13.43;;
1785;SDS011;890;48.158;11.540;2022-12-07T04:01:56;14.90;;;13.40;;
1785;SDS011;890;48.158;11.540;2022-12-07T04:04:26;16.83;;;14.20;;
1785;SDS011;890;48.158;11.540;2022-12-07T04:06:52;15.10;;;13.70;;
1785;SDS011;890;48.158;11.540;2022-12-07T04:09:18;15.73;;;14.10;;
1785;SDS011;890;48.158;11.540;2022-12-07T04:11:43;14.53;;;13.03;;
1785;SDS011;890;48.158;11.540;2022-12-07T04:14:09;14.10;;;12.70;;
1785;SDS011;890;48.158;11.540;2022-12-07T04:19:15;14.67;;;13.17;;
1785;SDS011;890;48.158;11.540;2022-12-07T04:21:42;14.83;;;13.10;;
1785;SDS011;890;48.158;11.540;2022-12-07T04:24:08;17.17;;;14.50;;
1785;SDS011;890;48.158;11.540;2022-12-07T04:26:34;15.00;;;13.50;;
1785;SDS011;890;48.158;11.540;2022-12-07T04:29:00;15.23;;;12.90;;
1785;SDS011;890;48.158;11.540;2022-12-07T04:31:25;15.27;;;13.67;;
1785;SDS011;890;48.158;11.540;2022-12-07T04:33:51;14.37;;;12.97;;
1785;SDS011;890;48.158;11.540;2022-12-07T04:36:17;14.43;;;12.93;;
1785;SDS011;890;48.158;11.540;2022-12-07T04:38:44;15.13;;;13.53;;
1785;SDS011;890;48.158;11.540;2022-12-07T04:41:10;15.93;;;14.23;;
1785;SDS011;890;48.158;11.540;2022-12-07T04:43:35;15.80;;;14.10;;
1785;SDS011;890;48.158;11.540;2022-12-07T04:46:01;14.67;;;13.27;;
1785;SDS011;890;48.158;11.540;2022-12-07T04:48:27;15.40;;;13.80;;
1785;SDS011;890;48.158;11.540;2022-12-07T04:50:53;14.80;;;13.30;;
1785;SDS011;890;48.158;11.540;2022-12-07T04:53:18;15.00;;;13.50;;
1785;SDS011;890;48.158;11.540;2022-12-07T04:55:45;14.87;;;12.97;;
1785;SDS011;890;48.158;11.540;2022-12-07T04:58:11;15.77;;;13.80;;
1785;SDS011;890;48.158;11.540;2022-12-07T05:00:38;14.20;;;12.67;;
1785;SDS011;890;48.158;11.540;2022-12-07T05:03:04;15.30;;;13.80;;
1785;SDS011;890;48.158;11.540;2022-12-07T05:05:29;15.77;;;14.03;;
1785;SDS011;890;48.158;11.540;2022-12-07T05:07:55;16.30;;;14.60;;
1785;SDS011;890;48.158;11.540;2022-12-07T05:10:21;18.80;;;14.50;;
1785;SDS011;890;48.158;11.540;2022-12-07T05:12:46;15.33;;;13.80;;
1785;SDS011;890;48.158;11.540;2022-12-07T05:15:13;15.73;;;14.13;;
1785;SDS011;890;48.158;11.540;2022-12-07T05:17:39;15.50;;;13.47;;
1785;SDS011;890;48.158;11.540;2022-12-07T05:20:05;16.23;;;14.53;;
1785;SDS011;890;48.158;11.540;2022-12-07T05:22:31;15.30;;;13.70;;
1785;SDS011;890;48.158;11.540;2022-12-07T05:24:56;16.33;;;14.57;;
1785;SDS011;890;48.158;11.540;2022-12-07T05:27:22;16.37;;;14.50;;
1785;SDS011;890;48.158;11.540;2022-12-07T05:29:49;15.50;;;13.90;;
1785;SDS011;890;48.158;11.540;2022-12-07T05:32:15;15.53;;;13.67;;
1785;SDS011;890;48.158;11.540;2022-12-07T05:34:41;14.90;;;13.30;;
1785;SDS011;890;48.158;11.540;2022-12-07T05:37:07;14.97;;;13.37;;
1785;SDS011;890;48.158;11.540;2022-12-07T05:39:32;15.37;;;13.63;;
1785;SDS011;890;48.158;11.540;2022-12-07T05:41:58;16.00;;;14.30;;
1785;SDS011;890;48.158;11.540;2022-12-07T05:44:38;15.87;;;14.27;;
1785;SDS011;890;48.158;11.540;2022-12-07T05:47:05;16.83;;;14.47;;
1785;SDS011;890;48.158;11.540;2022-12-07T05:49:31;16.83;;;15.00;;
1785;SDS011;890;48.158;11.540;2022-12-07T05:51:57;16.50;;;14.80;;
1785;SDS011;890;48.158;11.540;2022-12-07T05:54:23;19.53;;;15.80;;
1785;SDS011;890;48.158;11.540;2022-12-07T05:56:49;18.70;;;16.20;;
1785;SDS011;890;48.158;11.540;2022-12-07T05:59:14;15.60;;;14.00;;
1785;SDS011;890;48.158;11.540;2022-12-07T06:01:54;17.40;;;14.37;;
1785;SDS011;890;48.158;11.540;2022-12-07T06:04:21;17.80;;;15.20;;
1785;SDS011;890;48.158;11.540;2022-12-07T06:06:48;18.93;;;15.70;;
1785;SDS011;890;48.158;11.540;2022-12-07T06:09:14;19.77;;;16.63;;
1785;SDS011;890;48.158;11.540;2022-12-07T06:11:40;16.20;;;14.50;;
1785;SDS011;890;48.158;11.540;2022-12-07T06:14:24;17.30;;;15.50;;
1785;SDS011;890;48.158;11.540;2022-12-07T06:16:50;18.40;;;15.30;;
1785;SDS011;890;48.158;11.540;2022-12-07T06:19:16;17.40;;;14.67;;
1785;SDS011;890;48.158;11.540;2022-12-07T06:21:42;15.80;;;14.10;;
1785;SDS011;890;48.158;11.540;2022-12-07T06:24:09;16.63;;;14.73;;
1785;SDS011;890;48.158;11.540;2022-12-07T06:26:37;16.50;;;14.73;;
1785;SDS011;890;48.158;11.540;2022-12-07T06:29:02;17.80;;;15.50;;
1785;SDS011;890;48.158;11.540;2022-12-07T06:31:28;18.80;;;16.00;;
1785;SDS011;890;48.158;11.540;2022-12-07T06:34:00;17.07;;;14.87;;
1785;SDS011;890;48.158;11.540;2022-12-07T06:36:27;17.07;;;15.27;;
1785;SDS011;890;48.158;11.540;2022-12-07T06:38:53;16.90;;;15.03;;
1785;SDS011;890;48.158;11.540;2022-12-07T06:41:19;17.13;;;14.80;;
1785;SDS011;890;48.158;11.540;2022-12-07T06:43:45;16.13;;;14.40;;
1785;SDS011;890;48.158;11.540;2022-12-07T06:46:10;15.87;;;13.93;;
1785;SDS011;890;48.158;11.540;2022-12-07T06:48:36;16.80;;;15.10;;
1785;SDS011;890;48.158;11.540;2022-12-07T06:51:01;17.40;;;15.30;;
1785;SDS011;890;48.158;11.540;2022-12-07T06:53:27;17.07;;;14.97;;
1785;SDS011;890;48.158;11.540;2022-12-07T06:55:53;15.83;;;14.23;;
1785;SDS011;890;48.158;11.540;2022-12-07T06:58:18;17.70;;;15.90;;
1785;SDS011;890;48.158;11.540;2022-12-07T07:00:44;17.27;;;15.47;;
1785;SDS011;890;48.158;11.540;2022-12-07T07:03:10;17.17;;;15.30;;
1785;SDS011;890;48.158;11.540;2022-12-07T07:05:36;16.80;;;15.00;;
1785;SDS011;890;48.158;11.540;2022-12-07T07:08:01;17.23;;;15.20;;
1785;SDS011;890;48.158;11.540;2022-12-07T07:10:27;17.63;;;15.67;;
1785;SDS011;890;48.158;11.540;2022-12-07T07:12:53;15.80;;;14.10;;
1785;SDS011;890;48.158;11.540;2022-12-07T07:15:18;18.57;;;15.27;;
1785;SDS011;890;48.158;11.540;2022-12-07T07:17:44;17.27;;;14.97;;
1785;SDS011;890;48.158;11.540;2022-12-07T07:20:10;16.93;;;14.40;;
1785;SDS011;890;48.158;11.540;2022-12-07T07:22:36;16.23;;;14.20;;
1785;SDS011;890;48.158;11.540;2022-12-07T07:25:02;16.83;;;14.97;;
1785;SDS011;890;48.158;11.540;2022-12-07T07:27:28;16.57;;;14.50;;
1785;SDS011;890;48.158;11.540;2022-12-07T07:29:54;15.93;;;14.27;;
1785;SDS011;890;48.158;11.540;2022-12-07T07:32:19;16.13;;;14.40;;
1785;SDS011;890;48.158;11.540;2022-12-07T07:34:46;17.30;;;14.90;;
1785;SDS011;890;48.158;11.540;2022-12-07T07:37:12;17.50;;;15.73;;
1785;SDS011;890;48.158;11.540;2022-12-07T07:39:38;16.63;;;14.83;;
1785;SDS011;890;48.158;11.540;2022-12-07T07:42:04;18.27;;;15.80;;
1785;SDS011;890;48.158;11.540;2022-12-07T07:44:30;15.03;;;13.40;;
1785;SDS011;890;48.158;11.540;2022-12-07T07:46:56;16.37;;;14.70;;
1785;SDS011;890;48.158;11.540;2022-12-07T07:49:21;18.43;;;16.17;;
1785;SDS011;890;48.158;11.540;2022-12-07T07:51:47;17.80;;;15.90;;
1785;SDS011;890;48.158;11.540;2022-12-07T07:54:12;17.77;;;15.10;;
1785;SDS011;890;48.158;11.540;2022-12-07T07:56:38;16.73;;;14.93;;
1785;SDS011;890;48.158;11.540;2022-12-07T07:59:03;16.83;;;15.10;;
1785;SDS011;890;48.158;11.540;2022-12-07T08:01:29;16.57;;;14.77;;
1785;SDS011;890;48.158;11.540;2022-12-07T08:03:54;16.40;;;14.27;;
1785;SDS011;890;48.158;11.540;2022-12-07T08:06:20;17.13;;;15.07;;
1785;SDS011;890;48.158;11.540;2022-12-07T08:08:45;17.37;;;15.23;;
1785;SDS011;890;48.158;11.540;2022-12-07T08:11:11;18.30;;;15.37;;
1785;SDS011;890;48.158;11.540;2022-12-07T08:13:37;16.13;;;14.50;;
1785;SDS011;890;48.158;11.540;2022-12-07T08:16:03;17.23;;;14.80;;
1785;SDS011;890;48.158;11.540;2022-12-07T08:18:30;16.43;;;14.57;;
1785;SDS011;890;48.158;11.540;2022-12-07T08:21:00;18.03;;;15.10;;
1785;SDS011;890;48.158;11.540;2022-12-07T08:23:29;16.30;;;14.60;;
1785;SDS011;890;48.158;11.540;2022-12-07T08:25:55;19.13;;;15.67;;
1785;SDS011;890;48.158;11.540;2022-12-07T08:28:25;19.50;;;17.40;;
1785;SDS011;890;48.158;11.540;2022-12-07T08:30:50;17.00;;;15.20;;
1785;SDS011;890;48.158;11.540;2022-12-07T08:33:16;17.73;;;15.83;;
1785;SDS011;890;48.158;11.540;2022-12-07T08:35:42;18.33;;;15.40;;
1785;SDS011;890;48.158;11.540;2022-12-07T08:38:07;21.70;;;17.00;;
1785;SDS011;890;48.158;11.540;2022-12-07T08:40:33;19.20;;;15.60;;
1785;SDS011;890;48.158;11.540;2022-12-07T08:43:00;20.70;;;16.03;;
1785;SDS011;890;48.158;11.540;2022-12-07T08:45:25;20.07;;;16.67;;
1785;SDS011;890;48.158;11.540;2022-12-07T08:47:57;18.80;;;15.40;;
1785;SDS011;890;48.158;11.540;2022-12-07T08:50:28;17.67;;;15.77;;
1785;SDS011;890;48.158;11.540;2022-12-07T08:52:56;18.20;;;15.53;;
1785;SDS011;890;48.158;11.540;2022-12-07T08:55:23;18.83;;;15.90;;
1785;SDS011;890;48.158;11.540;2022-12-07T08:57:49;18.37;;;15.43;;
1785;SDS011;890;48.158;11.540;2022-12-07T09:00:15;17.97;;;16.03;;
1785;SDS011;890;48.158;11.540;2022-12-07T09:02:42;18.57;;;14.33;;
1785;SDS011;890;48.158;11.540;2022-12-07T09:05:09;16.87;;;14.57;;
1785;SDS011;890;48.158;11.540;2022-12-07T09:07:34;18.73;;;14.87;;
1785;SDS011;890;48.158;11.540;2022-12-07T09:10:01;17.40;;;14.37;;
1785;SDS011;890;48.158;11.540;2022-12-07T09:12:27;15.80;;;13.47;;
1785;SDS011;890;48.158;11.540;2022-12-07T09:14:52;18.80;;;14.67;;
1785;SDS011;890;48.158;11.540;2022-12-07T09:17:18;14.47;;;12.93;;
1785;SDS011;890;48.158;11.540;2022-12-07T09:19:44;17.43;;;14.77;;
1785;SDS011;890;48.158;11.540;2022-12-07T09:22:09;18.57;;;15.53;;
1785;SDS011;890;48.158;11.540;2022-12-07T09:24:35;14.90;;;12.50;;
1785;SDS011;890;48.158;11.540;2022-12-07T09:27:01;14.53;;;12.40;;
1785;SDS011;890;48.158;11.540;2022-12-07T09:29:27;15.03;;;13.00;;
1785;SDS011;890;48.158;11.540;2022-12-07T09:31:52;16.33;;;14.27;;
1785;SDS011;890;48.158;11.540;2022-12-07T09:34:18;13.90;;;12.00;;
1785;SDS011;890;48.158;11.540;2022-12-07T09:36:43;15.37;;;12.20;;
1785;SDS011;890;48.158;11.540;2022-12-07T09:39:09;14.47;;;12.73;;
1785;SDS011;890;48.158;11.540;2022-12-07T09:41:38;13.70;;;11.53;;
1785;SDS011;890;48.158;11.540;2022-12-07T09:44:10;13.30;;;11.70;;
1785;SDS011;890;48.158;11.540;2022-12-07T09:46:46;14.30;;;12.47;;
1785;SDS011;890;48.158;11.540;2022-12-07T09:49:14;14.77;;;12.20;;
1785;SDS011;890;48.158;11.540;2022-12-07T09:51:43;15.23;;;12.47;;
1785;SDS011;890;48.158;11.540;2022-12-07T09:54:12;14.80;;;11.90;;
1785;SDS011;890;48.158;11.540;2022-12-07T09:56:39;13.27;;;11.87;;
1785;SDS011;890;48.158;11.540;2022-12-07T09:59:05;14.40;;;12.03;;
1785;SDS011;890;48.158;11.540;2022-12-07T10:01:31;15.07;;;11.67;;
1785;SDS011;890;48.158;11.540;2022-12-07T10:04:08;14.90;;;12.97;;
1785;SDS011;890;48.158;11.540;2022-12-07T10:06:43;16.17;;;12.70;;
1785;SDS011;890;48.158;11.540;2022-12-07T10:09:12;14.93;;;12.73;;
1785;SDS011;890;48.158;11.540;2022-12-07T10:14:34;14.67;;;12.10;;
1785;SDS011;890;48.158;11.540;2022-12-07T10:17:01;14.63;;;13.03;;
1785;SDS011;890;48.158;11.540;2022-12-07T10:19:31;13.80;;;11.80;;
1785;SDS011;890;48.158;11.540;2022-12-07T10:22:02;13.57;;;11.07;;
1785;SDS011;890;48.158;11.540;2022-12-07T10:24:33;14.57;;;12.17;;
1785;SDS011;890;48.158;11.540;2022-12-07T10:26:59;16.20;;;11.80;;
1785;SDS011;890;48.158;11.540;2022-12-07T10:29:32;12.17;;;10.30;;
1785;SDS011;890;48.158;11.540;2022-12-07T10:32:02;12.63;;;10.50;;
1785;SDS011;890;48.158;11.540;2022-12-07T10:34:29;12.23;;;10.57;;
1785;SDS011;890;48.158;11.540;2022-12-07T10:39:52;12.00;;;10.43;;
1785;SDS011;890;48.158;11.540;2022-12-07T10:42:27;12.77;;;10.80;;
1785;SDS011;890;48.158;11.540;2022-12-07T10:45:13;12.40;;;10.67;;
1785;SDS011;890;48.158;11.540;2022-12-07T10:53:14;13.37;;;10.27;;
1785;SDS011;890;48.158;11.540;2022-12-07T10:55:56;12.87;;;10.00;;
1785;SDS011;890;48.158;11.540;2022-12-07T10:59:44;13.07;;;9.60;;
1785;SDS011;890;48.158;11.540;2022-12-07T11:02:02;9.70;;;7.67;;
1785;SDS011;890;48.158;11.540;2022-12-07T11:07:51;11.30;;;9.50;;
1785;SDS011;890;48.158;11.540;2022-12-07T11:13:13;11.67;;;10.17;;
1785;SDS011;890;48.158;11.540;2022-12-07T11:18:27;11.23;;;7.80;;
1785;SDS011;890;48.158;11.540;2022-12-07T11:23:46;9.20;;;7.03;;
1785;SDS011;890;48.158;11.540;2022-12-07T11:26:17;7.33;;;6.37;;
1785;SDS011;890;48.158;11.540;2022-12-07T11:34:47;7.07;;;5.70;;
1785;SDS011;890;48.158;11.540;2022-12-07T11:37:35;7.53;;;6.20;;
1785;SDS011;890;48.158;11.540;2022-12-07T11:40:13;8.00;;;6.50;;
1785;SDS011;890;48.158;11.540;2022-12-07T11:42:49;7.77;;;5.97;;
1785;SDS011;890;48.158;11.540;2022-12-07T11:45:26;6.80;;;5.83;;
1785;SDS011;890;48.158;11.540;2022-12-07T11:47:54;6.90;;;5.87;;
1785;SDS011;890;48.158;11.540;2022-12-07T11:55:43;9.27;;;6.80;;
1785;SDS011;890;48.158;11.540;2022-12-07T11:58:22;8.27;;;6.23;;
1785;SDS011;890;48.158;11.540;2022-12-07T12:03:52;7.17;;;5.60;;
1785;SDS011;890;48.158;11.540;2022-12-07T12:06:20;7.00;;;6.20;;
1785;SDS011;890;48.158;11.540;2022-12-07T12:08:49;7.43;;;6.30;;
1785;SDS011;890;48.158;11.540;2022-12-07T12:11:50;7.83;;;6.17;;
1785;SDS011;890;48.158;11.540;2022-12-07T12:14:45;7.77;;;6.30;;
1785;SDS011;890;48.158;11.540;2022-12-07T12:20:22;7.77;;;6.73;;
1785;SDS011;890;48.158;11.540;2022-12-07T12:25:26;7.70;;;6.40;;
1785;SDS011;890;48.158;11.540;2022-12-07T12:27:55;9.17;;;6.80;;
1785;SDS011;890;48.158;11.540;2022-12-07T12:30:29;9.63;;;7.43;;
1785;SDS011;890;48.158;11.540;2022-12-07T12:33:05;8.40;;;7.40;;
1785;SDS011;890;48.158;11.540;2022-12-07T12:35:47;8.43;;;7.23;;
1785;SDS011;890;48.158;11.540;2022-12-07T12:46:56;9.60;;;8.47;;
1785;SDS011;890;48.158;11.540;2022-12-07T12:51:50;9.73;;;7.27;;
1785;SDS011;890;48.158;11.540;2022-12-07T12:54:27;10.33;;;8.83;;
1785;SDS011;890;48.158;11.540;2022-12-07T13:02:24;9.33;;;8.20;;
1785;SDS011;890;48.158;11.540;2022-12-07T13:10:54;10.50;;;8.93;;
1785;SDS011;890;48.158;11.540;2022-12-07T13:15:45;11.40;;;8.43;;
1785;SDS011;890;48.158;11.540;2022-12-07T13:23:38;8.87;;;7.60;;
1785;SDS011;890;48.158;11.540;2022-12-07T13:31:45;11.00;;;9.00;;
1785;SDS011;890;48.158;11.540;2022-12-07T13:34:38;9.37;;;7.63;;
1785;SDS011;890;48.158;11.540;2022-12-07T13:42:27;10.03;;;8.90;;
1785;SDS011;890;48.158;11.540;2022-12-07T13:44:54;8.80;;;7.53;;
1785;SDS011;890;48.158;11.540;2022-12-07T13:49:59;9.67;;;8.50;;
1785;SDS011;890;48.158;11.540;2022-12-07T13:52:28;10.77;;;8.60;;
1785;SDS011;890;48.158;11.540;2022-12-07T13:57:26;12.13;;;9.90;;
1785;SDS011;890;48.158;11.540;2022-12-07T13:59:53;11.77;;;9.60;;
1785;SDS011;890;48.158;11.540;2022-12-07T14:02:29;10.60;;;8.97;;
1785;SDS011;890;48.158;11.540;2022-12-07T14:05:15;12.90;;;10.53;;
1785;SDS011;890;48.158;11.540;2022-12-07T14:08:33;18.33;;;10.70;;
1785;SDS011;890;48.158;11.540;2022-12-07T14:10:39;10.80;;;8.50;;
1785;SDS011;890;48.158;11.540;2022-12-07T14:16:05;10.37;;;8.80;;
1785;SDS011;890;48.158;11.540;2022-12-07T14:18:42;10.33;;;8.60;;
1785;SDS011;890;48.158;11.540;2022-12-07T14:23:40;9.47;;;8.33;;
1785;SDS011;890;48.158;11.540;2022-12-07T14:26:11;10.40;;;8.53;;
1785;SDS011;890;48.158;11.540;2022-12-07T14:28:38;9.07;;;7.77;;
1785;SDS011;890;48.158;11.540;2022-12-07T14:31:11;8.37;;;7.07;;
1785;SDS011;890;48.158;11.540;2022-12-07T14:33:39;8.63;;;7.10;;
1785;SDS011;890;48.158;11.540;2022-12-07T14:36:05;8.03;;;7.07;;
1785;SDS011;890;48.158;11.540;2022-12-07T14:38:33;9.03;;;6.60;;
1785;SDS011;890;48.158;11.540;2022-12-07T14:40:59;7.70;;;6.83;;
1785;SDS011;890;48.158;11.540;2022-12-07T14:43:44;7.73;;;6.40;;
1785;SDS011;890;48.158;11.540;2022-12-07T14:46:10;8.00;;;6.73;;
1785;SDS011;890;48.158;11.540;2022-12-07T14:48:36;8.00;;;6.90;;
1785;SDS011;890;48.158;11.540;2022-12-07T14:51:01;7.93;;;7.10;;
1785;SDS011;890;48.158;11.540;2022-12-07T14:53:34;8.00;;;6.50;;
1785;SDS011;890;48.158;11.540;2022-12-07T14:56:02;8.73;;;6.60;;
1785;SDS011;890;48.158;11.540;2022-12-07T14:58:30;8.40;;;7.47;;
1785;SDS011;890;48.158;11.540;2022-12-07T15:00:56;8.23;;;7.00;;
1785;SDS011;890;48.158;11.540;2022-12-07T15:03:21;9.60;;;7.43;;
1785;SDS011;890;48.158;11.540;2022-12-07T15:05:47;7.80;;;6.93;;
1785;SDS011;890;48.158;11.540;2022-12-07T15:08:13;8.57;;;6.90;;
1785;SDS011;890;48.158;11.540;2022-12-07T15:10:38;9.87;;;7.60;;
1785;SDS011;890;48.158;11.540;2022-12-07T15:13:05;7.80;;;7.00;;
1785;SDS011;890;48.158;11.540;2022-12-07T15:15:50;9.50;;;7.70;;
1785;SDS011;890;48.158;11.540;2022-12-07T15:18:17;10.33;;;7.90;;
1785;SDS011;890;48.158;11.540;2022-12-07T15:20:44;9.13;;;7.20;;
1785;SDS011;890;48.158;11.540;2022-12-07T15:23:12;8.63;;;7.80;;
1785;SDS011;890;48.158;11.540;2022-12-07T15:25:41;8.33;;;7.53;;
1785;SDS011;890;48.158;11.540;2022-12-07T15:28:11;9.63;;;8.63;;
1785;SDS011;890;48.158;11.540;2022-12-07T15:30:38;11.30;;;9.00;;
1785;SDS011;890;48.158;11.540;2022-12-07T15:33:05;11.50;;;9.00;;
1785;SDS011;890;48.158;11.540;2022-12-07T15:35:30;9.57;;;8.60;;
1785;SDS011;890;48.158;11.540;2022-12-07T15:37:56;10.57;;;9.40;;
1785;SDS011;890;48.158;11.540;2022-12-07T15:40:21;12.33;;;9.47;;
1785;SDS011;890;48.158;11.540;2022-12-07T15:42:47;11.40;;;9.70;;
1785;SDS011;890;48.158;11.540;2022-12-07T15:45:13;13.40;;;9.77;;
1785;SDS011;890;48.158;11.540;2022-12-07T15:47:39;12.33;;;10.87;;
1785;SDS011;890;48.158;11.540;2022-12-07T15:50:08;11.30;;;10.20;;
1785;SDS011;890;48.158;11.540;2022-12-07T15:52:35;12.00;;;10.40;;
1785;SDS011;890;48.158;11.540;2022-12-07T15:55:01;12.53;;;10.60;;
1785;SDS011;890;48.158;11.540;2022-12-07T15:57:28;14.00;;;11.40;;
1785;SDS011;890;48.158;11.540;2022-12-07T15:59:54;11.20;;;9.30;;
1785;SDS011;890;48.158;11.540;2022-12-07T16:02:21;18.83;;;16.57;;
1785;SDS011;890;48.158;11.540;2022-12-07T16:04:47;12.67;;;11.10;;
1785;SDS011;890;48.158;11.540;2022-12-07T16:07:13;12.77;;;10.40;;
1785;SDS011;890;48.158;11.540;2022-12-07T16:09:40;12.47;;;10.53;;
1785;SDS011;890;48.158;11.540;2022-12-07T16:12:09;13.80;;;11.00;;
1785;SDS011;890;48.158;11.540;2022-12-07T16:14:35;12.70;;;10.80;;
1785;SDS011;890;48.158;11.540;2022-12-07T16:17:01;12.20;;;10.57;;
1785;SDS011;890;48.158;11.540;2022-12-07T16:19:29;14.20;;;10.43;;
1785;SDS011;890;48.158;11.540;2022-12-07T16:21:55;13.37;;;10.97;;
1785;SDS011;890;48.158;11.540;2022-12-07T16:24:21;12.00;;;10.60;;
1785;SDS011;890;48.158;11.540;2022-12-07T16:26:47;14.10;;;11.47;;
1785;SDS011;890;48.158;11.540;2022-12-07T16:29:12;12.70;;;10.50;;
1785;SDS011;890;48.158;11.540;2022-12-07T16:31:38;13.17;;;11.47;;
1785;SDS011;890;48.158;11.540;2022-12-07T16:34:04;17.83;;;12.10;;
1785;SDS011;890;48.158;11.540;2022-12-07T16:36:29;15.20;;;13.23;;
1785;SDS011;890;48.158;11.540;2022-12-07T16:38:55;16.13;;;13.17;;
1785;SDS011;890;48.158;11.540;2022-12-07T16:41:22;16.03;;;13.50;;
1785;SDS011;890;48.158;11.540;2022-12-07T16:43:48;14.20;;;12.17;;
1785;SDS011;890;48.158;11.540;2022-12-07T16:46:14;13.97;;;11.20;;
1785;SDS011;890;48.158;11.540;2022-12-07T16:48:40;14.00;;;12.33;;
1785;SDS011;890;48.158;11.540;2022-12-07T16:51:07;15.37;;;12.37;;
1785;SDS011;890;48.158;11.540;2022-12-07T16:53:35;16.53;;;13.43;;
1785;SDS011;890;48.158;11.540;2022-12-07T16:56:02;15.00;;;12.17;;
1785;SDS011;890;48.158;11.540;2022-12-07T16:58:28;13.33;;;11.70;;
1785;SDS011;890;48.158;11.540;2022-12-07T17:00:53;15.57;;;12.73;;
1785;SDS011;890;48.158;11.540;2022-12-07T17:03:19;16.00;;;11.40;;
1785;SDS011;890;48.158;11.540;2022-12-07T17:05:45;13.43;;;11.37;;
1785;SDS011;890;48.158;11.540;2022-12-07T17:08:12;15.83;;;12.53;;
1785;SDS011;890;48.158;11.540;2022-12-07T17:10:39;14.50;;;12.33;;
1785;SDS011;890;48.158;11.540;2022-12-07T17:13:06;14.30;;;12.20;;
1785;SDS011;890;48.158;11.540;2022-12-07T17:15:58;13.80;;;11.50;;
1785;SDS011;890;48.158;11.540;2022-12-07T17:18:32;15.10;;;11.80;;